sensor_id;sensor_type;location;lat;lon;timestamp;P1;durP1;ratioP1;P2;durP2;ratioP2
27199;SDS011;14714;48.106;11.546;2023-05-19T00:02:28;11.70;;;4.78;;
27199;SDS011;14714;48.106;11.546;2023-05-19T00:04:59;13.38;;;4.50;;
27199;SDS011;14714;48.106;11.546;2023-05-19T00:07:29;13.00;;;5.30;;
27199;SDS011;14714;48.106;11.546;2023-05-19T00:09:56;9.52;;;4.50;;
27199;SDS011;14714;48.106;11.546;2023-05-19T00:12:23;16.20;;;5.00;;
27199;SDS011;14714;48.106;11.546;2023-05-19T00:14:51;12.63;;;5.07;;
27199;SDS011;14714;48.106;11.546;2023-05-19T00:17:18;11.43;;;4.97;;
27199;SDS011;14714;48.106;11.546;2023-05-19T00:19:45;13.43;;;4.88;;
27199;SDS011;14714;48.106;11.546;2023-05-19T00:22:12;11.90;;;5.88;;
27199;SDS011;14714;48.106;11.546;2023-05-19T00:24:40;11.30;;;5.18;;
27199;SDS011;14714;48.106;11.546;2023-05-19T00:27:06;10.40;;;5.05;;
27199;SDS011;14714;48.106;11.546;2023-05-19T00:29:33;9.73;;;5.22;;
27199;SDS011;14714;48.106;11.546;2023-05-19T00:32:00;9.85;;;4.93;;
27199;SDS011;14714;48.106;11.546;2023-05-19T00:34:27;16.60;;;6.13;;
27199;SDS011;14714;48.106;11.546;2023-05-19T00:36:54;16.58;;;4.97;;
27199;SDS011;14714;48.106;11.546;2023-05-19T00:39:21;12.23;;;4.80;;
27199;SDS011;14714;48.106;11.546;2023-05-19T00:41:47;9.90;;;5.65;;
27199;SDS011;14714;48.106;11.546;2023-05-19T00:44:14;13.88;;;5.25;;
27199;SDS011;14714;48.106;11.546;2023-05-19T00:46:41;13.85;;;5.43;;
27199;SDS011;14714;48.106;11.546;2023-05-19T00:49:08;69.05;;;28.83;;
27199;SDS011;14714;48.106;11.546;2023-05-19T00:51:35;24.55;;;10.07;;
27199;SDS011;14714;48.106;11.546;2023-05-19T00:54:02;19.35;;;7.50;;
27199;SDS011;14714;48.106;11.546;2023-05-19T00:56:30;15.15;;;6.03;;
27199;SDS011;14714;48.106;11.546;2023-05-19T00:58:57;19.23;;;5.82;;
27199;SDS011;14714;48.106;11.546;2023-05-19T01:01:24;18.13;;;5.57;;
27199;SDS011;14714;48.106;11.546;2023-05-19T01:03:52;15.85;;;5.50;;
27199;SDS011;14714;48.106;11.546;2023-05-19T01:06:22;13.38;;;5.20;;
27199;SDS011;14714;48.106;11.546;2023-05-19T01:08:49;17.83;;;5.97;;
27199;SDS011;14714;48.106;11.546;2023-05-19T01:11:16;14.43;;;6.20;;
27199;SDS011;14714;48.106;11.546;2023-05-19T01:13:43;16.77;;;5.38;;
27199;SDS011;14714;48.106;11.546;2023-05-19T01:16:12;11.35;;;5.03;;
27199;SDS011;14714;48.106;11.546;2023-05-19T01:19:12;15.63;;;4.82;;
27199;SDS011;14714;48.106;11.546;2023-05-19T01:21:50;12.70;;;5.70;;
27199;SDS011;14714;48.106;11.546;2023-05-19T01:24:59;11.65;;;5.05;;
27199;SDS011;14714;48.106;11.546;2023-05-19T01:30:53;16.73;;;5.75;;
27199;SDS011;14714;48.106;11.546;2023-05-19T01:33:22;16.50;;;5.45;;
27199;SDS011;14714;48.106;11.546;2023-05-19T01:35:49;12.30;;;5.13;;
27199;SDS011;14714;48.106;11.546;2023-05-19T01:38:18;11.10;;;4.80;;
27199;SDS011;14714;48.106;11.546;2023-05-19T01:40:46;11.90;;;4.95;;
27199;SDS011;14714;48.106;11.546;2023-05-19T01:43:16;15.48;;;5.15;;
27199;SDS011;14714;48.106;11.546;2023-05-19T01:45:46;13.60;;;5.55;;
27199;SDS011;14714;48.106;11.546;2023-05-19T01:48:14;13.55;;;5.35;;
27199;SDS011;14714;48.106;11.546;2023-05-19T01:50:41;14.68;;;5.38;;
27199;SDS011;14714;48.106;11.546;2023-05-19T01:53:08;16.35;;;5.60;;
27199;SDS011;14714;48.106;11.546;2023-05-19T01:55:44;15.43;;;5.72;;
27199;SDS011;14714;48.106;11.546;2023-05-19T02:00:52;13.48;;;5.30;;
27199;SDS011;14714;48.106;11.546;2023-05-19T02:03:43;12.65;;;5.45;;
27199;SDS011;14714;48.106;11.546;2023-05-19T02:09:38;13.20;;;5.30;;
27199;SDS011;14714;48.106;11.546;2023-05-19T02:12:31;10.68;;;5.20;;
27199;SDS011;14714;48.106;11.546;2023-05-19T02:17:40;13.07;;;5.68;;
27199;SDS011;14714;48.106;11.546;2023-05-19T02:20:16;13.35;;;5.13;;
27199;SDS011;14714;48.106;11.546;2023-05-19T02:22:44;18.10;;;5.40;;
27199;SDS011;14714;48.106;11.546;2023-05-19T02:25:11;15.55;;;5.40;;
27199;SDS011;14714;48.106;11.546;2023-05-19T02:27:38;14.32;;;6.05;;
27199;SDS011;14714;48.106;11.546;2023-05-19T02:30:05;12.35;;;5.38;;
27199;SDS011;14714;48.106;11.546;2023-05-19T02:32:34;14.82;;;5.68;;
27199;SDS011;14714;48.106;11.546;2023-05-19T02:35:02;13.07;;;5.10;;
27199;SDS011;14714;48.106;11.546;2023-05-19T02:37:29;10.05;;;5.65;;
27199;SDS011;14714;48.106;11.546;2023-05-19T02:39:56;18.58;;;5.70;;
27199;SDS011;14714;48.106;11.546;2023-05-19T02:42:23;11.57;;;5.43;;
27199;SDS011;14714;48.106;11.546;2023-05-19T02:44:51;12.85;;;5.32;;
27199;SDS011;14714;48.106;11.546;2023-05-19T02:47:19;17.17;;;5.67;;
27199;SDS011;14714;48.106;11.546;2023-05-19T02:49:46;18.90;;;5.88;;
27199;SDS011;14714;48.106;11.546;2023-05-19T02:52:13;11.27;;;5.30;;
27199;SDS011;14714;48.106;11.546;2023-05-19T02:54:40;12.60;;;5.40;;
27199;SDS011;14714;48.106;11.546;2023-05-19T02:57:06;14.05;;;5.70;;
27199;SDS011;14714;48.106;11.546;2023-05-19T02:59:33;14.15;;;6.18;;
27199;SDS011;14714;48.106;11.546;2023-05-19T03:02:00;13.63;;;5.93;;
27199;SDS011;14714;48.106;11.546;2023-05-19T03:04:28;13.05;;;5.85;;
27199;SDS011;14714;48.106;11.546;2023-05-19T03:06:55;13.15;;;6.03;;
27199;SDS011;14714;48.106;11.546;2023-05-19T03:09:22;17.40;;;6.32;;
27199;SDS011;14714;48.106;11.546;2023-05-19T03:11:49;13.65;;;6.38;;
27199;SDS011;14714;48.106;11.546;2023-05-19T03:14:16;11.38;;;5.97;;
27199;SDS011;14714;48.106;11.546;2023-05-19T03:16:43;11.80;;;5.40;;
27199;SDS011;14714;48.106;11.546;2023-05-19T03:19:11;15.52;;;5.85;;
27199;SDS011;14714;48.106;11.546;2023-05-19T03:21:38;15.23;;;5.45;;
27199;SDS011;14714;48.106;11.546;2023-05-19T03:24:04;12.57;;;5.88;;
27199;SDS011;14714;48.106;11.546;2023-05-19T03:26:32;13.55;;;5.88;;
27199;SDS011;14714;48.106;11.546;2023-05-19T03:28:59;15.95;;;5.85;;
27199;SDS011;14714;48.106;11.546;2023-05-19T03:31:26;11.05;;;6.10;;
27199;SDS011;14714;48.106;11.546;2023-05-19T03:33:52;14.30;;;6.32;;
27199;SDS011;14714;48.106;11.546;2023-05-19T03:36:19;11.73;;;5.60;;
27199;SDS011;14714;48.106;11.546;2023-05-19T03:38:47;18.27;;;6.32;;
27199;SDS011;14714;48.106;11.546;2023-05-19T03:41:14;13.73;;;6.32;;
27199;SDS011;14714;48.106;11.546;2023-05-19T03:43:41;16.85;;;5.80;;
27199;SDS011;14714;48.106;11.546;2023-05-19T03:46:08;12.73;;;6.13;;
27199;SDS011;14714;48.106;11.546;2023-05-19T03:48:35;12.88;;;6.13;;
27199;SDS011;14714;48.106;11.546;2023-05-19T03:51:01;17.45;;;6.90;;
27199;SDS011;14714;48.106;11.546;2023-05-19T03:53:29;15.18;;;6.32;;
27199;SDS011;14714;48.106;11.546;2023-05-19T03:55:56;14.20;;;5.70;;
27199;SDS011;14714;48.106;11.546;2023-05-19T03:58:23;12.48;;;5.90;;
27199;SDS011;14714;48.106;11.546;2023-05-19T04:00:50;16.83;;;6.20;;
27199;SDS011;14714;48.106;11.546;2023-05-19T04:03:16;16.38;;;7.05;;
27199;SDS011;14714;48.106;11.546;2023-05-19T04:05:43;12.05;;;6.07;;
27199;SDS011;14714;48.106;11.546;2023-05-19T04:08:10;14.50;;;5.95;;
27199;SDS011;14714;48.106;11.546;2023-05-19T04:10:37;12.35;;;5.85;;
27199;SDS011;14714;48.106;11.546;2023-05-19T04:13:04;9.82;;;6.22;;
27199;SDS011;14714;48.106;11.546;2023-05-19T04:15:30;16.27;;;6.28;;
27199;SDS011;14714;48.106;11.546;2023-05-19T04:17:57;19.58;;;6.18;;
27199;SDS011;14714;48.106;11.546;2023-05-19T04:20:24;14.88;;;6.45;;
27199;SDS011;14714;48.106;11.546;2023-05-19T04:22:51;15.15;;;6.22;;
27199;SDS011;14714;48.106;11.546;2023-05-19T04:25:18;12.02;;;5.90;;
27199;SDS011;14714;48.106;11.546;2023-05-19T04:27:45;11.48;;;5.25;;
27199;SDS011;14714;48.106;11.546;2023-05-19T04:30:13;10.00;;;5.20;;
27199;SDS011;14714;48.106;11.546;2023-05-19T04:32:47;11.82;;;5.40;;
27199;SDS011;14714;48.106;11.546;2023-05-19T04:35:16;12.98;;;5.68;;
27199;SDS011;14714;48.106;11.546;2023-05-19T04:37:43;13.98;;;5.88;;
27199;SDS011;14714;48.106;11.546;2023-05-19T04:40:13;11.95;;;5.70;;
27199;SDS011;14714;48.106;11.546;2023-05-19T04:42:41;17.50;;;5.60;;
27199;SDS011;14714;48.106;11.546;2023-05-19T04:45:08;14.40;;;5.50;;
27199;SDS011;14714;48.106;11.546;2023-05-19T04:47:37;11.63;;;5.60;;
27199;SDS011;14714;48.106;11.546;2023-05-19T04:50:04;13.90;;;6.25;;
27199;SDS011;14714;48.106;11.546;2023-05-19T04:52:32;13.07;;;5.93;;
27199;SDS011;14714;48.106;11.546;2023-05-19T04:54:59;15.98;;;6.05;;
27199;SDS011;14714;48.106;11.546;2023-05-19T04:57:26;10.65;;;5.18;;
27199;SDS011;14714;48.106;11.546;2023-05-19T04:59:53;11.30;;;5.60;;
27199;SDS011;14714;48.106;11.546;2023-05-19T05:02:25;11.25;;;5.30;;
27199;SDS011;14714;48.106;11.546;2023-05-19T05:04:55;14.30;;;5.57;;
27199;SDS011;14714;48.106;11.546;2023-05-19T05:07:22;13.85;;;5.85;;
27199;SDS011;14714;48.106;11.546;2023-05-19T05:09:49;13.10;;;5.68;;
27199;SDS011;14714;48.106;11.546;2023-05-19T05:12:16;17.00;;;5.93;;
27199;SDS011;14714;48.106;11.546;2023-05-19T05:14:43;10.52;;;5.43;;
27199;SDS011;14714;48.106;11.546;2023-05-19T05:17:11;12.00;;;5.25;;
27199;SDS011;14714;48.106;11.546;2023-05-19T05:19:39;13.90;;;5.45;;
27199;SDS011;14714;48.106;11.546;2023-05-19T05:22:06;18.23;;;5.07;;
27199;SDS011;14714;48.106;11.546;2023-05-19T05:24:33;13.35;;;5.40;;
27199;SDS011;14714;48.106;11.546;2023-05-19T05:27:00;11.65;;;5.30;;
27199;SDS011;14714;48.106;11.546;2023-05-19T05:29:27;15.02;;;4.93;;
27199;SDS011;14714;48.106;11.546;2023-05-19T05:31:53;13.20;;;5.05;;
27199;SDS011;14714;48.106;11.546;2023-05-19T05:34:21;13.40;;;4.80;;
27199;SDS011;14714;48.106;11.546;2023-05-19T05:36:48;11.85;;;5.18;;
27199;SDS011;14714;48.106;11.546;2023-05-19T05:39:14;13.82;;;5.50;;
27199;SDS011;14714;48.106;11.546;2023-05-19T05:41:41;11.23;;;4.88;;
27199;SDS011;14714;48.106;11.546;2023-05-19T05:44:08;10.38;;;4.65;;
27199;SDS011;14714;48.106;11.546;2023-05-19T05:46:35;10.23;;;4.97;;
27199;SDS011;14714;48.106;11.546;2023-05-19T05:49:02;11.82;;;4.50;;
27199;SDS011;14714;48.106;11.546;2023-05-19T05:51:29;10.65;;;4.18;;
27199;SDS011;14714;48.106;11.546;2023-05-19T05:53:58;10.90;;;4.50;;
27199;SDS011;14714;48.106;11.546;2023-05-19T05:56:26;10.32;;;4.65;;
27199;SDS011;14714;48.106;11.546;2023-05-19T05:58:52;10.07;;;4.13;;
27199;SDS011;14714;48.106;11.546;2023-05-19T06:01:19;14.45;;;4.35;;
27199;SDS011;14714;48.106;11.546;2023-05-19T06:03:47;10.60;;;3.75;;
27199;SDS011;14714;48.106;11.546;2023-05-19T06:06:13;8.82;;;3.83;;
27199;SDS011;14714;48.106;11.546;2023-05-19T06:08:40;8.10;;;3.45;;
27199;SDS011;14714;48.106;11.546;2023-05-19T06:11:07;11.70;;;4.13;;
27199;SDS011;14714;48.106;11.546;2023-05-19T06:13:34;9.85;;;3.92;;
27199;SDS011;14714;48.106;11.546;2023-05-19T06:16:02;8.13;;;4.13;;
27199;SDS011;14714;48.106;11.546;2023-05-19T06:18:29;7.30;;;3.88;;
27199;SDS011;14714;48.106;11.546;2023-05-19T06:20:55;10.80;;;3.72;;
27199;SDS011;14714;48.106;11.546;2023-05-19T06:23:22;9.40;;;3.63;;
27199;SDS011;14714;48.106;11.546;2023-05-19T06:25:50;9.65;;;4.00;;
27199;SDS011;14714;48.106;11.546;2023-05-19T06:28:17;9.55;;;4.20;;
27199;SDS011;14714;48.106;11.546;2023-05-19T06:30:44;7.68;;;3.60;;
27199;SDS011;14714;48.106;11.546;2023-05-19T06:33:11;10.13;;;4.00;;
27199;SDS011;14714;48.106;11.546;2023-05-19T06:35:37;8.38;;;3.78;;
27199;SDS011;14714;48.106;11.546;2023-05-19T06:38:04;10.43;;;4.15;;
27199;SDS011;14714;48.106;11.546;2023-05-19T06:40:31;7.53;;;3.72;;
27199;SDS011;14714;48.106;11.546;2023-05-19T06:42:58;6.93;;;3.53;;
27199;SDS011;14714;48.106;11.546;2023-05-19T06:45:25;7.45;;;3.78;;
27199;SDS011;14714;48.106;11.546;2023-05-19T06:47:52;8.05;;;3.70;;
27199;SDS011;14714;48.106;11.546;2023-05-19T06:50:19;6.05;;;3.70;;
27199;SDS011;14714;48.106;11.546;2023-05-19T06:52:47;8.48;;;3.65;;
27199;SDS011;14714;48.106;11.546;2023-05-19T06:55:13;7.35;;;3.35;;
27199;SDS011;14714;48.106;11.546;2023-05-19T06:57:41;6.35;;;2.92;;
27199;SDS011;14714;48.106;11.546;2023-05-19T07:00:08;6.50;;;2.90;;
27199;SDS011;14714;48.106;11.546;2023-05-19T07:02:40;10.20;;;2.83;;
27199;SDS011;14714;48.106;11.546;2023-05-19T07:05:07;7.53;;;2.97;;
27199;SDS011;14714;48.106;11.546;2023-05-19T07:07:34;7.35;;;2.90;;
27199;SDS011;14714;48.106;11.546;2023-05-19T07:10:01;6.18;;;3.20;;
27199;SDS011;14714;48.106;11.546;2023-05-19T07:12:27;4.85;;;2.92;;
27199;SDS011;14714;48.106;11.546;2023-05-19T07:14:54;4.50;;;2.70;;
27199;SDS011;14714;48.106;11.546;2023-05-19T07:17:21;5.50;;;2.83;;
27199;SDS011;14714;48.106;11.546;2023-05-19T07:19:48;4.80;;;3.20;;
27199;SDS011;14714;48.106;11.546;2023-05-19T07:22:15;5.68;;;3.35;;
27199;SDS011;14714;48.106;11.546;2023-05-19T07:24:42;7.35;;;3.22;;
27199;SDS011;14714;48.106;11.546;2023-05-19T07:27:09;6.20;;;3.20;;
27199;SDS011;14714;48.106;11.546;2023-05-19T07:29:35;8.10;;;3.72;;
27199;SDS011;14714;48.106;11.546;2023-05-19T07:32:02;7.95;;;3.70;;
27199;SDS011;14714;48.106;11.546;2023-05-19T07:34:29;6.00;;;3.10;;
27199;SDS011;14714;48.106;11.546;2023-05-19T07:36:56;6.50;;;3.53;;
27199;SDS011;14714;48.106;11.546;2023-05-19T07:39:23;9.93;;;3.70;;
27199;SDS011;14714;48.106;11.546;2023-05-19T07:41:52;7.57;;;3.60;;
27199;SDS011;14714;48.106;11.546;2023-05-19T07:44:20;7.40;;;3.60;;
27199;SDS011;14714;48.106;11.546;2023-05-19T07:46:47;6.68;;;3.67;;
27199;SDS011;14714;48.106;11.546;2023-05-19T07:49:14;7.82;;;3.17;;
27199;SDS011;14714;48.106;11.546;2023-05-19T07:51:41;4.78;;;2.80;;
27199;SDS011;14714;48.106;11.546;2023-05-19T07:54:08;7.15;;;3.17;;
27199;SDS011;14714;48.106;11.546;2023-05-19T07:56:34;7.63;;;2.92;;
27199;SDS011;14714;48.106;11.546;2023-05-19T07:59:02;4.82;;;2.78;;
27199;SDS011;14714;48.106;11.546;2023-05-19T08:01:29;5.55;;;2.97;;
27199;SDS011;14714;48.106;11.546;2023-05-19T08:03:57;7.47;;;3.10;;
27199;SDS011;14714;48.106;11.546;2023-05-19T08:06:24;5.00;;;3.00;;
27199;SDS011;14714;48.106;11.546;2023-05-19T08:08:51;8.02;;;3.05;;
27199;SDS011;14714;48.106;11.546;2023-05-19T08:11:19;7.18;;;3.40;;
27199;SDS011;14714;48.106;11.546;2023-05-19T08:13:46;5.40;;;3.60;;
27199;SDS011;14714;48.106;11.546;2023-05-19T08:16:16;7.75;;;3.58;;
27199;SDS011;14714;48.106;11.546;2023-05-19T08:18:43;7.57;;;4.00;;
27199;SDS011;14714;48.106;11.546;2023-05-19T08:21:10;6.13;;;3.60;;
27199;SDS011;14714;48.106;11.546;2023-05-19T08:23:37;8.85;;;4.30;;
27199;SDS011;14714;48.106;11.546;2023-05-19T08:26:04;6.35;;;4.05;;
27199;SDS011;14714;48.106;11.546;2023-05-19T08:28:31;8.98;;;4.45;;
27199;SDS011;14714;48.106;11.546;2023-05-19T08:30:58;11.65;;;4.50;;
27199;SDS011;14714;48.106;11.546;2023-05-19T08:33:25;10.13;;;4.35;;
27199;SDS011;14714;48.106;11.546;2023-05-19T08:35:51;9.45;;;4.85;;
27199;SDS011;14714;48.106;11.546;2023-05-19T08:38:20;9.07;;;4.80;;
27199;SDS011;14714;48.106;11.546;2023-05-19T08:40:47;9.30;;;5.13;;
27199;SDS011;14714;48.106;11.546;2023-05-19T08:43:14;7.80;;;4.97;;
27199;SDS011;14714;48.106;11.546;2023-05-19T08:45:42;11.02;;;5.45;;
27199;SDS011;14714;48.106;11.546;2023-05-19T08:48:13;7.38;;;5.05;;
27199;SDS011;14714;48.106;11.546;2023-05-19T08:50:44;8.15;;;4.80;;
27199;SDS011;14714;48.106;11.546;2023-05-19T08:53:22;8.50;;;5.30;;
27199;SDS011;14714;48.106;11.546;2023-05-19T08:58:39;9.00;;;5.05;;
27199;SDS011;14714;48.106;11.546;2023-05-19T09:01:09;8.02;;;4.72;;
27199;SDS011;14714;48.106;11.546;2023-05-19T09:03:42;11.35;;;4.90;;
27199;SDS011;14714;48.106;11.546;2023-05-19T09:06:15;8.13;;;4.78;;
27199;SDS011;14714;48.106;11.546;2023-05-19T09:08:42;10.73;;;5.18;;
27199;SDS011;14714;48.106;11.546;2023-05-19T09:11:09;12.18;;;4.90;;
27199;SDS011;14714;48.106;11.546;2023-05-19T09:13:37;10.18;;;5.10;;
27199;SDS011;14714;48.106;11.546;2023-05-19T09:16:04;9.75;;;4.88;;
27199;SDS011;14714;48.106;11.546;2023-05-19T09:18:31;8.02;;;5.38;;
27199;SDS011;14714;48.106;11.546;2023-05-19T09:20:59;6.80;;;4.80;;
27199;SDS011;14714;48.106;11.546;2023-05-19T09:23:28;9.80;;;4.88;;
27199;SDS011;14714;48.106;11.546;2023-05-19T09:26:03;7.57;;;4.82;;
27199;SDS011;14714;48.106;11.546;2023-05-19T09:28:34;7.97;;;4.80;;
27199;SDS011;14714;48.106;11.546;2023-05-19T09:31:02;8.15;;;5.20;;
27199;SDS011;14714;48.106;11.546;2023-05-19T09:33:37;8.00;;;5.43;;
27199;SDS011;14714;48.106;11.546;2023-05-19T09:36:07;10.48;;;5.63;;
27199;SDS011;14714;48.106;11.546;2023-05-19T09:38:37;8.32;;;5.05;;
27199;SDS011;14714;48.106;11.546;2023-05-19T09:41:05;9.10;;;4.53;;
27199;SDS011;14714;48.106;11.546;2023-05-19T09:43:33;6.40;;;4.82;;
27199;SDS011;14714;48.106;11.546;2023-05-19T09:46:07;7.60;;;4.32;;
27199;SDS011;14714;48.106;11.546;2023-05-19T09:48:38;11.55;;;4.78;;
27199;SDS011;14714;48.106;11.546;2023-05-19T09:51:06;10.85;;;4.95;;
27199;SDS011;14714;48.106;11.546;2023-05-19T09:53:35;8.90;;;5.00;;
27199;SDS011;14714;48.106;11.546;2023-05-19T09:56:02;10.20;;;5.50;;
27199;SDS011;14714;48.106;11.546;2023-05-19T09:58:32;7.55;;;4.95;;
27199;SDS011;14714;48.106;11.546;2023-05-19T10:01:03;9.43;;;5.30;;
27199;SDS011;14714;48.106;11.546;2023-05-19T10:03:31;11.13;;;5.45;;
27199;SDS011;14714;48.106;11.546;2023-05-19T10:06:05;6.82;;;4.72;;
27199;SDS011;14714;48.106;11.546;2023-05-19T10:08:34;10.13;;;5.75;;
27199;SDS011;14714;48.106;11.546;2023-05-19T10:11:02;14.13;;;6.20;;
27199;SDS011;14714;48.106;11.546;2023-05-19T10:13:31;9.48;;;5.90;;
27199;SDS011;14714;48.106;11.546;2023-05-19T10:16:03;8.82;;;6.22;;
27199;SDS011;14714;48.106;11.546;2023-05-19T10:18:31;12.07;;;6.35;;
27199;SDS011;14714;48.106;11.546;2023-05-19T10:20:59;10.70;;;6.40;;
27199;SDS011;14714;48.106;11.546;2023-05-19T10:23:26;12.60;;;6.63;;
27199;SDS011;14714;48.106;11.546;2023-05-19T10:25:55;10.48;;;6.35;;
27199;SDS011;14714;48.106;11.546;2023-05-19T10:28:26;9.38;;;6.63;;
27199;SDS011;14714;48.106;11.546;2023-05-19T10:31:00;10.48;;;7.03;;
27199;SDS011;14714;48.106;11.546;2023-05-19T10:39:15;9.93;;;6.97;;
27199;SDS011;14714;48.106;11.546;2023-05-19T10:41:49;10.60;;;7.35;;
27199;SDS011;14714;48.106;11.546;2023-05-19T10:44:38;11.80;;;7.78;;
27199;SDS011;14714;48.106;11.546;2023-05-19T10:47:24;9.77;;;7.43;;
27199;SDS011;14714;48.106;11.546;2023-05-19T10:49:52;17.55;;;7.63;;
27199;SDS011;14714;48.106;11.546;2023-05-19T10:52:19;12.13;;;7.75;;
27199;SDS011;14714;48.106;11.546;2023-05-19T10:54:48;12.93;;;7.95;;
27199;SDS011;14714;48.106;11.546;2023-05-19T10:57:15;11.18;;;7.47;;
27199;SDS011;14714;48.106;11.546;2023-05-19T10:59:42;11.60;;;7.75;;
27199;SDS011;14714;48.106;11.546;2023-05-19T11:02:48;9.48;;;6.85;;
27199;SDS011;14714;48.106;11.546;2023-05-19T11:07:36;10.02;;;7.40;;
27199;SDS011;14714;48.106;11.546;2023-05-19T11:10:06;10.15;;;6.75;;
27199;SDS011;14714;48.106;11.546;2023-05-19T11:12:44;9.35;;;6.97;;
27199;SDS011;14714;48.106;11.546;2023-05-19T11:15:12;10.82;;;7.97;;
27199;SDS011;14714;48.106;11.546;2023-05-19T11:17:40;8.95;;;7.10;;
27199;SDS011;14714;48.106;11.546;2023-05-19T11:20:29;11.73;;;7.90;;
27199;SDS011;14714;48.106;11.546;2023-05-19T11:23:00;12.95;;;7.75;;
27199;SDS011;14714;48.106;11.546;2023-05-19T11:25:44;12.52;;;6.93;;
27199;SDS011;14714;48.106;11.546;2023-05-19T11:28:16;13.45;;;8.43;;
27199;SDS011;14714;48.106;11.546;2023-05-19T11:30:45;11.18;;;7.65;;
27199;SDS011;14714;48.106;11.546;2023-05-19T11:33:16;10.68;;;7.10;;
27199;SDS011;14714;48.106;11.546;2023-05-19T11:38:15;11.27;;;7.88;;
27199;SDS011;14714;48.106;11.546;2023-05-19T11:40:43;14.45;;;8.20;;
27199;SDS011;14714;48.106;11.546;2023-05-19T11:43:12;12.77;;;7.32;;
27199;SDS011;14714;48.106;11.546;2023-05-19T11:45:39;13.48;;;8.25;;
27199;SDS011;14714;48.106;11.546;2023-05-19T11:48:09;12.15;;;7.85;;
27199;SDS011;14714;48.106;11.546;2023-05-19T11:50:39;12.73;;;7.97;;
27199;SDS011;14714;48.106;11.546;2023-05-19T11:53:06;11.57;;;8.15;;
27199;SDS011;14714;48.106;11.546;2023-05-19T11:55:40;13.13;;;7.43;;
27199;SDS011;14714;48.106;11.546;2023-05-19T11:58:11;11.38;;;7.93;;
27199;SDS011;14714;48.106;11.546;2023-05-19T12:00:39;15.18;;;8.18;;
27199;SDS011;14714;48.106;11.546;2023-05-19T12:03:06;12.95;;;8.80;;
27199;SDS011;14714;48.106;11.546;2023-05-19T12:05:44;13.05;;;8.57;;
27199;SDS011;14714;48.106;11.546;2023-05-19T12:08:13;13.60;;;8.93;;
27199;SDS011;14714;48.106;11.546;2023-05-19T12:10:42;12.65;;;8.65;;
27199;SDS011;14714;48.106;11.546;2023-05-19T12:13:10;12.90;;;9.30;;
27199;SDS011;14714;48.106;11.546;2023-05-19T12:15:37;12.20;;;9.05;;
27199;SDS011;14714;48.106;11.546;2023-05-19T12:18:05;13.63;;;9.38;;
27199;SDS011;14714;48.106;11.546;2023-05-19T12:20:32;13.15;;;9.05;;
27199;SDS011;14714;48.106;11.546;2023-05-19T12:23:01;13.10;;;8.82;;
27199;SDS011;14714;48.106;11.546;2023-05-19T12:25:28;17.23;;;9.43;;
27199;SDS011;14714;48.106;11.546;2023-05-19T12:27:58;21.38;;;9.82;;
27199;SDS011;14714;48.106;11.546;2023-05-19T12:30:26;11.20;;;9.27;;
27199;SDS011;14714;48.106;11.546;2023-05-19T12:32:54;10.55;;;8.05;;
27199;SDS011;14714;48.106;11.546;2023-05-19T12:35:25;12.23;;;9.02;;
27199;SDS011;14714;48.106;11.546;2023-05-19T12:37:54;13.55;;;8.95;;
27199;SDS011;14714;48.106;11.546;2023-05-19T12:40:21;18.08;;;8.95;;
27199;SDS011;14714;48.106;11.546;2023-05-19T12:42:48;12.90;;;8.80;;
27199;SDS011;14714;48.106;11.546;2023-05-19T12:47:47;14.82;;;9.25;;
27199;SDS011;14714;48.106;11.546;2023-05-19T12:50:14;13.20;;;9.02;;
27199;SDS011;14714;48.106;11.546;2023-05-19T12:52:50;13.32;;;9.23;;
27199;SDS011;14714;48.106;11.546;2023-05-19T12:55:18;13.35;;;8.38;;
27199;SDS011;14714;48.106;11.546;2023-05-19T12:57:49;16.77;;;9.18;;
27199;SDS011;14714;48.106;11.546;2023-05-19T13:00:22;12.65;;;8.32;;
27199;SDS011;14714;48.106;11.546;2023-05-19T13:05:20;13.57;;;9.60;;
27199;SDS011;14714;48.106;11.546;2023-05-19T13:08:01;11.95;;;8.45;;
27199;SDS011;14714;48.106;11.546;2023-05-19T13:10:32;13.05;;;7.90;;
27199;SDS011;14714;48.106;11.546;2023-05-19T13:13:00;12.68;;;7.53;;
27199;SDS011;14714;48.106;11.546;2023-05-19T13:15:28;13.35;;;9.10;;
27199;SDS011;14714;48.106;11.546;2023-05-19T13:18:00;17.35;;;10.07;;
27199;SDS011;14714;48.106;11.546;2023-05-19T13:20:28;12.73;;;8.93;;
27199;SDS011;14714;48.106;11.546;2023-05-19T13:22:56;14.32;;;9.32;;
27199;SDS011;14714;48.106;11.546;2023-05-19T13:25:23;12.23;;;9.10;;
27199;SDS011;14714;48.106;11.546;2023-05-19T13:27:50;12.82;;;8.73;;
27199;SDS011;14714;48.106;11.546;2023-05-19T13:30:17;11.35;;;8.00;;
27199;SDS011;14714;48.106;11.546;2023-05-19T13:32:44;12.27;;;8.38;;
27199;SDS011;14714;48.106;11.546;2023-05-19T13:35:12;14.90;;;8.95;;
27199;SDS011;14714;48.106;11.546;2023-05-19T13:37:42;11.77;;;8.65;;
27199;SDS011;14714;48.106;11.546;2023-05-19T13:40:10;10.32;;;7.03;;
27199;SDS011;14714;48.106;11.546;2023-05-19T13:42:37;13.35;;;8.07;;
27199;SDS011;14714;48.106;11.546;2023-05-19T13:45:04;12.13;;;8.20;;
27199;SDS011;14714;48.106;11.546;2023-05-19T13:47:31;11.13;;;8.85;;
27199;SDS011;14714;48.106;11.546;2023-05-19T13:49:58;12.23;;;7.70;;
27199;SDS011;14714;48.106;11.546;2023-05-19T13:52:25;10.73;;;7.82;;
27199;SDS011;14714;48.106;11.546;2023-05-19T13:54:55;10.65;;;7.65;;
27199;SDS011;14714;48.106;11.546;2023-05-19T13:57:22;10.48;;;7.72;;
27199;SDS011;14714;48.106;11.546;2023-05-19T13:59:52;10.02;;;7.57;;
27199;SDS011;14714;48.106;11.546;2023-05-19T14:02:29;15.30;;;8.55;;
27199;SDS011;14714;48.106;11.546;2023-05-19T14:04:56;10.48;;;8.55;;
27199;SDS011;14714;48.106;11.546;2023-05-19T14:07:23;12.07;;;8.32;;
27199;SDS011;14714;48.106;11.546;2023-05-19T14:09:51;10.25;;;7.47;;
27199;SDS011;14714;48.106;11.546;2023-05-19T14:12:18;12.43;;;8.40;;
27199;SDS011;14714;48.106;11.546;2023-05-19T14:14:50;11.43;;;7.88;;
27199;SDS011;14714;48.106;11.546;2023-05-19T14:17:17;10.20;;;8.45;;
27199;SDS011;14714;48.106;11.546;2023-05-19T14:19:44;11.00;;;8.13;;
27199;SDS011;14714;48.106;11.546;2023-05-19T14:22:11;11.70;;;8.43;;
27199;SDS011;14714;48.106;11.546;2023-05-19T14:24:38;9.82;;;7.88;;
27199;SDS011;14714;48.106;11.546;2023-05-19T14:27:06;11.63;;;7.93;;
27199;SDS011;14714;48.106;11.546;2023-05-19T14:29:33;12.07;;;8.07;;
27199;SDS011;14714;48.106;11.546;2023-05-19T14:32:00;12.43;;;8.00;;
27199;SDS011;14714;48.106;11.546;2023-05-19T14:34:28;12.95;;;8.95;;
27199;SDS011;14714;48.106;11.546;2023-05-19T14:36:55;13.07;;;8.68;;
27199;SDS011;14714;48.106;11.546;2023-05-19T14:39:22;14.13;;;8.57;;
27199;SDS011;14714;48.106;11.546;2023-05-19T14:41:49;12.45;;;8.13;;
27199;SDS011;14714;48.106;11.546;2023-05-19T14:44:17;11.20;;;7.85;;
27199;SDS011;14714;48.106;11.546;2023-05-19T14:46:43;12.07;;;8.98;;
27199;SDS011;14714;48.106;11.546;2023-05-19T14:49:10;16.67;;;8.82;;
27199;SDS011;14714;48.106;11.546;2023-05-19T14:51:37;10.50;;;8.45;;
27199;SDS011;14714;48.106;11.546;2023-05-19T14:54:04;11.25;;;8.05;;
27199;SDS011;14714;48.106;11.546;2023-05-19T14:56:31;12.20;;;8.30;;
27199;SDS011;14714;48.106;11.546;2023-05-19T14:58:57;13.70;;;8.32;;
27199;SDS011;14714;48.106;11.546;2023-05-19T15:01:24;11.43;;;9.30;;
27199;SDS011;14714;48.106;11.546;2023-05-19T15:03:51;11.90;;;9.20;;
27199;SDS011;14714;48.106;11.546;2023-05-19T15:06:18;14.20;;;8.70;;